sensor_id;sensor_type;location;lat;lon;timestamp;temperature;humidity
55121;DHT22;41019;48.512;9.036;2023-02-18T00:01:15;12.30;96.40
55121;DHT22;41019;48.512;9.036;2023-02-18T00:03:42;12.40;96.40
55121;DHT22;41019;48.512;9.036;2023-02-18T00:06:18;12.30;96.40
55121;DHT22;41019;48.512;9.036;2023-02-18T00:08:46;12.30;96.40
55121;DHT22;41019;48.512;9.036;2023-02-18T00:11:14;12.30;96.50
55121;DHT22;41019;48.512;9.036;2023-02-18T00:13:41;12.30;96.60
55121;DHT22;41019;48.512;9.036;2023-02-18T00:16:10;12.30;96.60
55121;DHT22;41019;48.512;9.036;2023-02-18T00:18:37;12.40;96.60
55121;DHT22;41019;48.512;9.036;2023-02-18T00:21:07;12.30;96.60
55121;DHT22;41019;48.512;9.036;2023-02-18T00:23:33;12.30;96.50
55121;DHT22;41019;48.512;9.036;2023-02-18T00:28:29;12.20;96.60
55121;DHT22;41019;48.512;9.036;2023-02-18T00:30:56;12.20;96.50
55121;DHT22;41019;48.512;9.036;2023-02-18T00:33:22;12.20;96.60
55121;DHT22;41019;48.512;9.036;2023-02-18T00:35:48;12.20;96.60
55121;DHT22;41019;48.512;9.036;2023-02-18T00:38:15;12.20;96.60
55121;DHT22;41019;48.512;9.036;2023-02-18T00:40:42;12.30;96.50
55121;DHT22;41019;48.512;9.036;2023-02-18T00:43:09;12.20;96.50
55121;DHT22;41019;48.512;9.036;2023-02-18T00:45:35;12.20;96.50
55121;DHT22;41019;48.512;9.036;2023-02-18T00:48:03;12.30;96.50
55121;DHT22;41019;48.512;9.036;2023-02-18T00:50:29;12.30;96.50
55121;DHT22;41019;48.512;9.036;2023-02-18T00:52:56;12.30;96.40
55121;DHT22;41019;48.512;9.036;2023-02-18T00:55:23;12.30;96.30
55121;DHT22;41019;48.512;9.036;2023-02-18T00:57:49;12.20;96.40
55121;DHT22;41019;48.512;9.036;2023-02-18T01:00:15;12.20;96.40
55121;DHT22;41019;48.512;9.036;2023-02-18T01:02:41;12.20;96.40
55121;DHT22;41019;48.512;9.036;2023-02-18T01:05:07;12.20;96.30
55121;DHT22;41019;48.512;9.036;2023-02-18T01:07:32;12.20;96.30
55121;DHT22;41019;48.512;9.036;2023-02-18T01:09:58;12.20;96.30
55121;DHT22;41019;48.512;9.036;2023-02-18T01:12:24;12.10;96.20
55121;DHT22;41019;48.512;9.036;2023-02-18T01:14:50;12.10;96.10
55121;DHT22;41019;48.512;9.036;2023-02-18T01:17:16;12.10;96.10
55121;DHT22;41019;48.512;9.036;2023-02-18T01:19:42;12.10;96.00
55121;DHT22;41019;48.512;9.036;2023-02-18T01:22:09;12.20;95.90
55121;DHT22;41019;48.512;9.036;2023-02-18T01:24:35;12.10;95.90
55121;DHT22;41019;48.512;9.036;2023-02-18T01:27:03;12.10;95.80
55121;DHT22;41019;48.512;9.036;2023-02-18T01:29:28;12.20;95.90
55121;DHT22;41019;48.512;9.036;2023-02-18T01:31:54;12.10;95.80
55121;DHT22;41019;48.512;9.036;2023-02-18T01:34:20;12.10;95.80
55121;DHT22;41019;48.512;9.036;2023-02-18T01:36:46;12.10;95.80
55121;DHT22;41019;48.512;9.036;2023-02-18T01:39:12;12.10;95.90
55121;DHT22;41019;48.512;9.036;2023-02-18T01:41:38;12.00;95.90
55121;DHT22;41019;48.512;9.036;2023-02-18T01:44:19;12.00;95.90
55121;DHT22;41019;48.512;9.036;2023-02-18T01:46:46;12.00;96.00
55121;DHT22;41019;48.512;9.036;2023-02-18T01:49:17;12.00;96.20
55121;DHT22;41019;48.512;9.036;2023-02-18T01:51:52;11.90;96.20
55121;DHT22;41019;48.512;9.036;2023-02-18T01:57:08;12.00;96.30
55121;DHT22;41019;48.512;9.036;2023-02-18T02:00:11;12.00;96.30
55121;DHT22;41019;48.512;9.036;2023-02-18T02:02:44;12.00;96.40
55121;DHT22;41019;48.512;9.036;2023-02-18T02:05:11;11.90;96.40
55121;DHT22;41019;48.512;9.036;2023-02-18T02:07:39;11.90;96.40
55121;DHT22;41019;48.512;9.036;2023-02-18T02:10:08;11.80;96.50
55121;DHT22;41019;48.512;9.036;2023-02-18T02:15:45;11.80;96.40
55121;DHT22;41019;48.512;9.036;2023-02-18T02:27:05;11.80;96.40
55121;DHT22;41019;48.512;9.036;2023-02-18T02:32:13;11.70;96.30
55121;DHT22;41019;48.512;9.036;2023-02-18T02:40:29;11.70;96.30
55121;DHT22;41019;48.512;9.036;2023-02-18T02:46:30;11.70;96.40
55121;DHT22;41019;48.512;9.036;2023-02-18T02:49:17;11.70;96.40
55121;DHT22;41019;48.512;9.036;2023-02-18T02:52:12;11.70;96.40
55121;DHT22;41019;48.512;9.036;2023-02-18T02:54:39;11.70;96.30
55121;DHT22;41019;48.512;9.036;2023-02-18T03:00:00;11.80;96.10
55121;DHT22;41019;48.512;9.036;2023-02-18T03:05:29;11.80;96.00
55121;DHT22;41019;48.512;9.036;2023-02-18T03:16:26;11.80;95.70
55121;DHT22;41019;48.512;9.036;2023-02-18T03:19:17;11.90;95.70
55121;DHT22;41019;48.512;9.036;2023-02-18T03:22:12;11.90;95.60
55121;DHT22;41019;48.512;9.036;2023-02-18T03:24:45;11.90;95.50
55121;DHT22;41019;48.512;9.036;2023-02-18T03:30:15;11.90;95.50
55121;DHT22;41019;48.512;9.036;2023-02-18T03:32:47;11.90;95.40
55121;DHT22;41019;48.512;9.036;2023-02-18T03:35:17;11.90;95.30
55121;DHT22;41019;48.512;9.036;2023-02-18T03:38:16;11.90;95.40
55121;DHT22;41019;48.512;9.036;2023-02-18T03:40:40;11.80;95.50
55121;DHT22;41019;48.512;9.036;2023-02-18T03:43:06;11.80;95.50
55121;DHT22;41019;48.512;9.036;2023-02-18T03:45:32;11.70;95.60
55121;DHT22;41019;48.512;9.036;2023-02-18T03:47:58;11.70;95.70
55121;DHT22;41019;48.512;9.036;2023-02-18T03:50:24;11.70;95.80
55121;DHT22;41019;48.512;9.036;2023-02-18T03:52:49;11.60;95.90
55121;DHT22;41019;48.512;9.036;2023-02-18T03:55:16;11.60;96.00
55121;DHT22;41019;48.512;9.036;2023-02-18T03:57:42;11.50;96.00
55121;DHT22;41019;48.512;9.036;2023-02-18T04:00:08;11.40;96.10
55121;DHT22;41019;48.512;9.036;2023-02-18T04:02:41;11.50;96.30
55121;DHT22;41019;48.512;9.036;2023-02-18T04:05:07;11.30;96.20
55121;DHT22;41019;48.512;9.036;2023-02-18T04:07:33;11.30;96.30
55121;DHT22;41019;48.512;9.036;2023-02-18T04:09:59;11.30;96.30
55121;DHT22;41019;48.512;9.036;2023-02-18T04:12:25;11.30;96.30
55121;DHT22;41019;48.512;9.036;2023-02-18T04:14:51;11.30;96.50
55121;DHT22;41019;48.512;9.036;2023-02-18T04:17:18;11.20;96.70
55121;DHT22;41019;48.512;9.036;2023-02-18T04:19:44;11.10;96.70
55121;DHT22;41019;48.512;9.036;2023-02-18T04:22:10;11.60;96.80
55121;DHT22;41019;48.512;9.036;2023-02-18T04:24:36;11.20;96.60
55121;DHT22;41019;48.512;9.036;2023-02-18T04:27:02;11.20;96.60
55121;DHT22;41019;48.512;9.036;2023-02-18T04:29:28;11.10;96.70
55121;DHT22;41019;48.512;9.036;2023-02-18T04:31:53;11.10;96.70
55121;DHT22;41019;48.512;9.036;2023-02-18T04:34:19;11.10;96.80
55121;DHT22;41019;48.512;9.036;2023-02-18T04:36:46;11.10;96.80
55121;DHT22;41019;48.512;9.036;2023-02-18T04:39:11;11.20;96.80
55121;DHT22;41019;48.512;9.036;2023-02-18T04:41:37;11.10;96.70
55121;DHT22;41019;48.512;9.036;2023-02-18T04:44:03;11.10;96.70
55121;DHT22;41019;48.512;9.036;2023-02-18T04:46:29;11.10;96.70
55121;DHT22;41019;48.512;9.036;2023-02-18T04:48:55;11.10;96.80
55121;DHT22;41019;48.512;9.036;2023-02-18T04:51:21;11.10;96.70
55121;DHT22;41019;48.512;9.036;2023-02-18T04:53:47;11.20;96.80
55121;DHT22;41019;48.512;9.036;2023-02-18T04:56:13;11.20;96.80
55121;DHT22;41019;48.512;9.036;2023-02-18T04:58:38;11.20;96.80
55121;DHT22;41019;48.512;9.036;2023-02-18T05:01:05;11.20;96.80
55121;DHT22;41019;48.512;9.036;2023-02-18T05:03:31;11.20;96.90
55121;DHT22;41019;48.512;9.036;2023-02-18T05:05:57;11.20;96.90
55121;DHT22;41019;48.512;9.036;2023-02-18T05:08:23;11.20;96.90
55121;DHT22;41019;48.512;9.036;2023-02-18T05:10:49;11.20;96.90
55121;DHT22;41019;48.512;9.036;2023-02-18T05:13:15;11.20;97.00
55121;DHT22;41019;48.512;9.036;2023-02-18T05:15:42;11.20;96.90
55121;DHT22;41019;48.512;9.036;2023-02-18T05:18:07;11.20;96.90
55121;DHT22;41019;48.512;9.036;2023-02-18T05:20:34;11.20;96.90
55121;DHT22;41019;48.512;9.036;2023-02-18T05:23:00;11.20;96.80
55121;DHT22;41019;48.512;9.036;2023-02-18T05:25:26;11.30;96.70
55121;DHT22;41019;48.512;9.036;2023-02-18T05:27:52;11.30;96.70
55121;DHT22;41019;48.512;9.036;2023-02-18T05:30:18;11.30;96.60
55121;DHT22;41019;48.512;9.036;2023-02-18T05:32:44;11.30;96.60
55121;DHT22;41019;48.512;9.036;2023-02-18T05:35:10;11.30;96.60
55121;DHT22;41019;48.512;9.036;2023-02-18T05:37:36;11.30;96.70
55121;DHT22;41019;48.512;9.036;2023-02-18T05:40:03;11.30;96.50
55121;DHT22;41019;48.512;9.036;2023-02-18T05:42:29;11.40;96.50
55121;DHT22;41019;48.512;9.036;2023-02-18T05:44:56;11.30;96.40
55121;DHT22;41019;48.512;9.036;2023-02-18T05:47:22;11.40;96.40
55121;DHT22;41019;48.512;9.036;2023-02-18T05:49:48;11.30;96.40
55121;DHT22;41019;48.512;9.036;2023-02-18T05:52:13;11.40;96.40
55121;DHT22;41019;48.512;9.036;2023-02-18T05:54:39;11.40;96.30
55121;DHT22;41019;48.512;9.036;2023-02-18T05:57:05;11.40;96.30
55121;DHT22;41019;48.512;9.036;2023-02-18T05:59:31;11.30;96.30
55121;DHT22;41019;48.512;9.036;2023-02-18T06:01:57;11.40;96.20
55121;DHT22;41019;48.512;9.036;2023-02-18T06:04:23;11.40;96.30
55121;DHT22;41019;48.512;9.036;2023-02-18T06:06:49;11.40;96.10
55121;DHT22;41019;48.512;9.036;2023-02-18T06:09:14;11.40;96.00
55121;DHT22;41019;48.512;9.036;2023-02-18T06:11:41;11.40;95.90
55121;DHT22;41019;48.512;9.036;2023-02-18T06:14:07;11.40;95.90
55121;DHT22;41019;48.512;9.036;2023-02-18T06:16:33;11.40;95.90
55121;DHT22;41019;48.512;9.036;2023-02-18T06:18:59;11.50;95.80
55121;DHT22;41019;48.512;9.036;2023-02-18T06:21:25;11.60;95.80
55121;DHT22;41019;48.512;9.036;2023-02-18T06:23:51;11.50;95.70
55121;DHT22;41019;48.512;9.036;2023-02-18T06:26:17;11.50;95.70
55121;DHT22;41019;48.512;9.036;2023-02-18T06:28:43;11.50;95.80
55121;DHT22;41019;48.512;9.036;2023-02-18T06:31:08;11.60;95.80
55121;DHT22;41019;48.512;9.036;2023-02-18T06:33:34;11.50;95.70
55121;DHT22;41019;48.512;9.036;2023-02-18T06:36:04;11.60;95.80
55121;DHT22;41019;48.512;9.036;2023-02-18T06:38:34;11.60;95.70
55121;DHT22;41019;48.512;9.036;2023-02-18T06:41:01;11.70;95.70
55121;DHT22;41019;48.512;9.036;2023-02-18T06:43:26;11.70;95.70
55121;DHT22;41019;48.512;9.036;2023-02-18T06:45:52;11.60;95.60
55121;DHT22;41019;48.512;9.036;2023-02-18T06:48:18;11.60;95.70
55121;DHT22;41019;48.512;9.036;2023-02-18T06:50:44;11.60;95.90
55121;DHT22;41019;48.512;9.036;2023-02-18T06:53:11;11.60;95.80
55121;DHT22;41019;48.512;9.036;2023-02-18T06:55:38;11.60;95.90
55121;DHT22;41019;48.512;9.036;2023-02-18T06:58:04;11.60;95.90
55121;DHT22;41019;48.512;9.036;2023-02-18T07:00:30;11.70;95.90
55121;DHT22;41019;48.512;9.036;2023-02-18T07:02:56;11.80;95.80
55121;DHT22;41019;48.512;9.036;2023-02-18T07:05:22;11.70;95.80
55121;DHT22;41019;48.512;9.036;2023-02-18T07:07:48;11.80;95.70
55121;DHT22;41019;48.512;9.036;2023-02-18T07:10:14;11.80;95.80
55121;DHT22;41019;48.512;9.036;2023-02-18T07:12:40;11.80;95.70
55121;DHT22;41019;48.512;9.036;2023-02-18T07:15:06;11.80;95.60
55121;DHT22;41019;48.512;9.036;2023-02-18T07:17:31;11.90;95.60
55121;DHT22;41019;48.512;9.036;2023-02-18T07:19:57;11.90;95.60
55121;DHT22;41019;48.512;9.036;2023-02-18T07:22:23;12.00;95.50
55121;DHT22;41019;48.512;9.036;2023-02-18T07:24:53;12.00;95.40
55121;DHT22;41019;48.512;9.036;2023-02-18T07:27:20;12.10;95.50
55121;DHT22;41019;48.512;9.036;2023-02-18T07:29:47;12.10;95.20
55121;DHT22;41019;48.512;9.036;2023-02-18T07:32:15;12.10;95.10
55121;DHT22;41019;48.512;9.036;2023-02-18T07:34:41;12.20;95.00
55121;DHT22;41019;48.512;9.036;2023-02-18T07:37:06;12.20;95.00
55121;DHT22;41019;48.512;9.036;2023-02-18T07:39:39;12.20;94.80
55121;DHT22;41019;48.512;9.036;2023-02-18T07:42:05;12.30;94.80
55121;DHT22;41019;48.512;9.036;2023-02-18T07:44:32;12.30;94.70
55121;DHT22;41019;48.512;9.036;2023-02-18T07:46:58;12.30;94.60
55121;DHT22;41019;48.512;9.036;2023-02-18T07:49:24;12.40;94.60
55121;DHT22;41019;48.512;9.036;2023-02-18T07:51:50;12.40;94.50
55121;DHT22;41019;48.512;9.036;2023-02-18T07:54:16;12.40;94.60
55121;DHT22;41019;48.512;9.036;2023-02-18T07:56:43;12.50;94.30
55121;DHT22;41019;48.512;9.036;2023-02-18T07:59:10;12.50;94.20
55121;DHT22;41019;48.512;9.036;2023-02-18T08:01:36;12.60;94.00
55121;DHT22;41019;48.512;9.036;2023-02-18T08:04:05;12.60;94.00
55121;DHT22;41019;48.512;9.036;2023-02-18T08:06:38;12.70;93.90
55121;DHT22;41019;48.512;9.036;2023-02-18T08:09:05;12.70;93.80
55121;DHT22;41019;48.512;9.036;2023-02-18T08:11:31;12.80;93.70
55121;DHT22;41019;48.512;9.036;2023-02-18T08:13:57;12.70;93.30
55121;DHT22;41019;48.512;9.036;2023-02-18T08:16:24;12.80;93.10
55121;DHT22;41019;48.512;9.036;2023-02-18T08:18:51;12.80;93.10
55121;DHT22;41019;48.512;9.036;2023-02-18T08:21:18;12.80;93.00
55121;DHT22;41019;48.512;9.036;2023-02-18T08:23:45;12.80;93.00
55121;DHT22;41019;48.512;9.036;2023-02-18T08:26:12;12.90;92.90
55121;DHT22;41019;48.512;9.036;2023-02-18T08:28:42;12.80;92.70
55121;DHT22;41019;48.512;9.036;2023-02-18T08:31:26;12.90;92.60
55121;DHT22;41019;48.512;9.036;2023-02-18T08:33:54;12.90;92.70
55121;DHT22;41019;48.512;9.036;2023-02-18T08:36:20;12.80;92.60
55121;DHT22;41019;48.512;9.036;2023-02-18T08:38:46;12.80;92.50
55121;DHT22;41019;48.512;9.036;2023-02-18T08:41:12;12.80;92.60
55121;DHT22;41019;48.512;9.036;2023-02-18T08:43:43;12.80;92.60
55121;DHT22;41019;48.512;9.036;2023-02-18T08:46:10;12.90;92.40
55121;DHT22;41019;48.512;9.036;2023-02-18T08:48:35;12.90;92.60
55121;DHT22;41019;48.512;9.036;2023-02-18T08:51:20;13.00;92.50
55121;DHT22;41019;48.512;9.036;2023-02-18T08:53:46;12.90;92.60
55121;DHT22;41019;48.512;9.036;2023-02-18T08:56:13;12.90;92.40
55121;DHT22;41019;48.512;9.036;2023-02-18T08:58:40;13.00;92.50
55121;DHT22;41019;48.512;9.036;2023-02-18T09:01:08;12.90;92.50
55121;DHT22;41019;48.512;9.036;2023-02-18T09:03:36;13.00;92.50
55121;DHT22;41019;48.512;9.036;2023-02-18T09:06:02;13.00;92.60
55121;DHT22;41019;48.512;9.036;2023-02-18T09:08:29;13.00;92.60
55121;DHT22;41019;48.512;9.036;2023-02-18T09:11:00;13.00;92.60
55121;DHT22;41019;48.512;9.036;2023-02-18T09:13:27;13.00;92.70
55121;DHT22;41019;48.512;9.036;2023-02-18T09:16:08;13.00;92.80
55121;DHT22;41019;48.512;9.036;2023-02-18T09:18:35;12.90;92.90
55121;DHT22;41019;48.512;9.036;2023-02-18T09:21:02;13.00;92.80
55121;DHT22;41019;48.512;9.036;2023-02-18T09:23:30;13.00;92.80
55121;DHT22;41019;48.512;9.036;2023-02-18T09:25:57;13.00;92.90
55121;DHT22;41019;48.512;9.036;2023-02-18T09:28:23;13.00;92.90
55121;DHT22;41019;48.512;9.036;2023-02-18T09:30:50;13.10;93.00
55121;DHT22;41019;48.512;9.036;2023-02-18T09:33:17;13.10;92.80
55121;DHT22;41019;48.512;9.036;2023-02-18T09:35:45;13.10;92.80
55121;DHT22;41019;48.512;9.036;2023-02-18T09:38:13;13.20;92.80
55121;DHT22;41019;48.512;9.036;2023-02-18T09:40:46;13.20;92.70
55121;DHT22;41019;48.512;9.036;2023-02-18T09:43:23;13.20;92.80
55121;DHT22;41019;48.512;9.036;2023-02-18T09:45:53;13.30;92.40
55121;DHT22;41019;48.512;9.036;2023-02-18T09:48:26;13.40;92.60
55121;DHT22;41019;48.512;9.036;2023-02-18T09:50:53;13.50;92.20
55121;DHT22;41019;48.512;9.036;2023-02-18T09:53:22;13.60;92.10
55121;DHT22;41019;48.512;9.036;2023-02-18T09:55:49;13.60;91.80
55121;DHT22;41019;48.512;9.036;2023-02-18T09:58:29;13.60;91.90
55121;DHT22;41019;48.512;9.036;2023-02-18T10:03:33;13.70;91.80
55121;DHT22;41019;48.512;9.036;2023-02-18T10:06:06;13.80;91.50
55121;DHT22;41019;48.512;9.036;2023-02-18T10:08:37;13.90;91.10
55121;DHT22;41019;48.512;9.036;2023-02-18T10:11:12;13.90;91.30
55121;DHT22;41019;48.512;9.036;2023-02-18T10:13:42;14.00;90.80
55121;DHT22;41019;48.512;9.036;2023-02-18T10:16:15;14.10;90.60
55121;DHT22;41019;48.512;9.036;2023-02-18T10:18:45;14.20;90.40
55121;DHT22;41019;48.512;9.036;2023-02-18T10:21:23;14.20;90.30
55121;DHT22;41019;48.512;9.036;2023-02-18T10:24:39;14.20;90.30
55121;DHT22;41019;48.512;9.036;2023-02-18T10:26:47;14.30;90.10
55121;DHT22;41019;48.512;9.036;2023-02-18T10:29:15;14.30;90.00
55121;DHT22;41019;48.512;9.036;2023-02-18T10:34:40;14.40;89.80
55121;DHT22;41019;48.512;9.036;2023-02-18T10:42:41;14.40;88.10
55121;DHT22;41019;48.512;9.036;2023-02-18T10:48:27;14.50;87.50
55121;DHT22;41019;48.512;9.036;2023-02-18T10:51:00;14.40;87.70
55121;DHT22;41019;48.512;9.036;2023-02-18T10:53:36;14.40;87.70
55121;DHT22;41019;48.512;9.036;2023-02-18T10:56:05;14.40;87.50
55121;DHT22;41019;48.512;9.036;2023-02-18T11:01:03;14.40;87.20
55121;DHT22;41019;48.512;9.036;2023-02-18T11:03:47;14.50;87.00
55121;DHT22;41019;48.512;9.036;2023-02-18T11:06:32;14.50;86.40
55121;DHT22;41019;48.512;9.036;2023-02-18T11:09:03;14.60;86.60
55121;DHT22;41019;48.512;9.036;2023-02-18T11:11:32;14.50;86.90
55121;DHT22;41019;48.512;9.036;2023-02-18T11:14:05;14.60;86.60
55121;DHT22;41019;48.512;9.036;2023-02-18T11:16:43;14.60;86.80
55121;DHT22;41019;48.512;9.036;2023-02-18T11:19:36;14.60;86.60
55121;DHT22;41019;48.512;9.036;2023-02-18T11:24:39;14.70;85.60
55121;DHT22;41019;48.512;9.036;2023-02-18T11:27:16;14.60;84.90
55121;DHT22;41019;48.512;9.036;2023-02-18T11:29:43;14.70;85.10
55121;DHT22;41019;48.512;9.036;2023-02-18T11:32:11;14.80;84.80
55121;DHT22;41019;48.512;9.036;2023-02-18T11:34:41;14.90;84.60
55121;DHT22;41019;48.512;9.036;2023-02-18T11:37:17;14.80;83.90
55121;DHT22;41019;48.512;9.036;2023-02-18T11:39:50;14.80;83.80
55121;DHT22;41019;48.512;9.036;2023-02-18T11:42:23;14.80;83.50
55121;DHT22;41019;48.512;9.036;2023-02-18T11:44:57;14.70;83.50
55121;DHT22;41019;48.512;9.036;2023-02-18T11:47:24;14.70;83.50
55121;DHT22;41019;48.512;9.036;2023-02-18T11:50:13;14.70;83.90
55121;DHT22;41019;48.512;9.036;2023-02-18T11:52:44;14.70;83.70
55121;DHT22;41019;48.512;9.036;2023-02-18T11:55:25;14.60;83.90
55121;DHT22;41019;48.512;9.036;2023-02-18T11:57:58;14.60;83.90
55121;DHT22;41019;48.512;9.036;2023-02-18T12:02:59;14.50;83.50
55121;DHT22;41019;48.512;9.036;2023-02-18T12:05:27;14.60;83.60
55121;DHT22;41019;48.512;9.036;2023-02-18T12:08:04;14.50;83.70
55121;DHT22;41019;48.512;9.036;2023-02-18T12:10:31;14.50;83.70
55121;DHT22;41019;48.512;9.036;2023-02-18T12:13:25;14.50;83.70
55121;DHT22;41019;48.512;9.036;2023-02-18T12:46:21;14.70;81.40
55121;DHT22;41019;48.512;9.036;2023-02-18T12:54:30;14.70;81.20
55121;DHT22;41019;48.512;9.036;2023-02-18T12:59:43;14.60;80.70
55121;DHT22;41019;48.512;9.036;2023-02-18T13:02:53;14.70;80.60
55121;DHT22;41019;48.512;9.036;2023-02-18T13:05:39;14.70;80.20
55121;DHT22;41019;48.512;9.036;2023-02-18T13:14:02;14.70;80.30
55121;DHT22;41019;48.512;9.036;2023-02-18T13:16:31;14.60;80.40
55121;DHT22;41019;48.512;9.036;2023-02-18T13:21:41;14.70;79.40
55121;DHT22;41019;48.512;9.036;2023-02-18T13:24:20;14.70;79.40
55121;DHT22;41019;48.512;9.036;2023-02-18T13:26:50;14.70;79.20
55121;DHT22;41019;48.512;9.036;2023-02-18T13:29:43;14.70;79.30
55121;DHT22;41019;48.512;9.036;2023-02-18T13:32:30;14.70;78.60
55121;DHT22;41019;48.512;9.036;2023-02-18T13:40:53;14.80;78.60
55121;DHT22;41019;48.512;9.036;2023-02-18T13:46:14;14.80;78.50
55121;DHT22;41019;48.512;9.036;2023-02-18T13:49:04;14.80;77.70
55121;DHT22;41019;48.512;9.036;2023-02-18T13:51:53;14.90;77.30
55121;DHT22;41019;48.512;9.036;2023-02-18T13:54:39;14.90;77.00
55121;DHT22;41019;48.512;9.036;2023-02-18T13:57:19;14.90;76.80
55121;DHT22;41019;48.512;9.036;2023-02-18T13:59:57;15.00;77.00
55121;DHT22;41019;48.512;9.036;2023-02-18T14:04:50;15.00;77.00
55121;DHT22;41019;48.512;9.036;2023-02-18T14:09:56;15.00;76.40
55121;DHT22;41019;48.512;9.036;2023-02-18T14:12:34;15.10;76.10
55121;DHT22;41019;48.512;9.036;2023-02-18T14:20:47;15.00;76.20
55121;DHT22;41019;48.512;9.036;2023-02-18T14:29:30;15.00;76.00
55121;DHT22;41019;48.512;9.036;2023-02-18T14:34:35;15.20;74.80
55121;DHT22;41019;48.512;9.036;2023-02-18T14:39:53;15.20;74.40
55121;DHT22;41019;48.512;9.036;2023-02-18T14:48:36;15.20;73.70
55121;DHT22;41019;48.512;9.036;2023-02-18T14:51:04;15.20;73.30
55121;DHT22;41019;48.512;9.036;2023-02-18T14:53:39;15.20;74.10
55121;DHT22;41019;48.512;9.036;2023-02-18T14:56:10;15.20;74.40
55121;DHT22;41019;48.512;9.036;2023-02-18T14:58:45;15.20;75.00
55121;DHT22;41019;48.512;9.036;2023-02-18T15:01:18;15.20;75.30
55121;DHT22;41019;48.512;9.036;2023-02-18T15:03:46;15.20;76.20
55121;DHT22;41019;48.512;9.036;2023-02-18T15:06:32;15.20;76.10
55121;DHT22;41019;48.512;9.036;2023-02-18T15:08:59;15.20;75.70
55121;DHT22;41019;48.512;9.036;2023-02-18T15:11:41;15.20;75.60
55121;DHT22;41019;48.512;9.036;2023-02-18T15:14:17;15.20;75.50
55121;DHT22;41019;48.512;9.036;2023-02-18T15:16:46;15.10;75.40
55121;DHT22;41019;48.512;9.036;2023-02-18T15:19:19;15.10;75.40
55121;DHT22;41019;48.512;9.036;2023-02-18T15:21:52;15.20;75.70
55121;DHT22;41019;48.512;9.036;2023-02-18T15:24:31;15.10;76.50
55121;DHT22;41019;48.512;9.036;2023-02-18T15:32:49;15.10;75.30
55121;DHT22;41019;48.512;9.036;2023-02-18T15:35:18;15.00;74.80
55121;DHT22;41019;48.512;9.036;2023-02-18T15:37:46;15.10;75.20
55121;DHT22;41019;48.512;9.036;2023-02-18T15:40:17;15.00;74.60
55121;DHT22;41019;48.512;9.036;2023-02-18T15:42:49;15.10;74.30
55121;DHT22;41019;48.512;9.036;2023-02-18T15:47:56;15.00;74.60
55121;DHT22;41019;48.512;9.036;2023-02-18T15:50:34;15.00;73.60
55121;DHT22;41019;48.512;9.036;2023-02-18T15:53:15;14.90;73.80
55121;DHT22;41019;48.512;9.036;2023-02-18T15:55:46;14.90;74.10
55121;DHT22;41019;48.512;9.036;2023-02-18T15:58:26;14.80;73.60
55121;DHT22;41019;48.512;9.036;2023-02-18T16:00:59;14.70;73.60
55121;DHT22;41019;48.512;9.036;2023-02-18T16:03:30;14.70;73.50
55121;DHT22;41019;48.512;9.036;2023-02-18T16:08:34;14.70;73.60
55121;DHT22;41019;48.512;9.036;2023-02-18T16:11:04;14.60;73.30
55121;DHT22;41019;48.512;9.036;2023-02-18T16:13:34;14.60;73.70
55121;DHT22;41019;48.512;9.036;2023-02-18T16:16:00;14.60;73.30
55121;DHT22;41019;48.512;9.036;2023-02-18T16:18:34;14.50;73.60
55121;DHT22;41019;48.512;9.036;2023-02-18T16:21:05;14.40;74.30
55121;DHT22;41019;48.512;9.036;2023-02-18T16:23:42;14.40;74.00
55121;DHT22;41019;48.512;9.036;2023-02-18T16:26:20;14.30;74.30
55121;DHT22;41019;48.512;9.036;2023-02-18T16:28:50;14.30;74.60
55121;DHT22;41019;48.512;9.036;2023-02-18T16:31:17;14.20;74.90
55121;DHT22;41019;48.512;9.036;2023-02-18T16:33:44;14.20;75.50
55121;DHT22;41019;48.512;9.036;2023-02-18T16:36:12;14.10;75.40
55121;DHT22;41019;48.512;9.036;2023-02-18T16:38:43;14.10;75.60
55121;DHT22;41019;48.512;9.036;2023-02-18T16:41:12;14.10;76.10
55121;DHT22;41019;48.512;9.036;2023-02-18T16:43:38;14.10;76.10
55121;DHT22;41019;48.512;9.036;2023-02-18T16:46:13;14.00;76.50
55121;DHT22;41019;48.512;9.036;2023-02-18T16:48:43;14.00;76.60
55121;DHT22;41019;48.512;9.036;2023-02-18T16:51:35;14.00;76.80
55121;DHT22;41019;48.512;9.036;2023-02-18T16:54:01;14.00;76.90
55121;DHT22;41019;48.512;9.036;2023-02-18T16:56:32;13.90;76.90
55121;DHT22;41019;48.512;9.036;2023-02-18T16:58:59;13.90;76.90
55121;DHT22;41019;48.512;9.036;2023-02-18T17:01:31;13.90;77.30
55121;DHT22;41019;48.512;9.036;2023-02-18T17:04:00;13.90;77.40
55121;DHT22;41019;48.512;9.036;2023-02-18T17:06:27;13.90;77.90
55121;DHT22;41019;48.512;9.036;2023-02-18T17:08:53;13.80;78.30
55121;DHT22;41019;48.512;9.036;2023-02-18T17:13:48;13.70;78.90
55121;DHT22;41019;48.512;9.036;2023-02-18T17:16:16;13.80;79.10
55121;DHT22;41019;48.512;9.036;2023-02-18T17:18:43;13.70;79.30
55121;DHT22;41019;48.512;9.036;2023-02-18T17:21:18;13.60;79.30
55121;DHT22;41019;48.512;9.036;2023-02-18T17:23:45;13.70;79.50
55121;DHT22;41019;48.512;9.036;2023-02-18T17:26:19;13.70;79.70
55121;DHT22;41019;48.512;9.036;2023-02-18T17:28:46;13.70;80.20
55121;DHT22;41019;48.512;9.036;2023-02-18T17:31:18;13.60;80.40
55121;DHT22;41019;48.512;9.036;2023-02-18T17:33:45;13.60;80.70
55121;DHT22;41019;48.512;9.036;2023-02-18T17:36:11;13.60;80.90
55121;DHT22;41019;48.512;9.036;2023-02-18T17:38:38;13.60;81.10
55121;DHT22;41019;48.512;9.036;2023-02-18T17:41:05;13.50;81.60
55121;DHT22;41019;48.512;9.036;2023-02-18T17:43:31;13.50;82.00
55121;DHT22;41019;48.512;9.036;2023-02-18T17:45:57;13.40;82.40
55121;DHT22;41019;48.512;9.036;2023-02-18T17:48:24;13.40;82.70
55121;DHT22;41019;48.512;9.036;2023-02-18T17:50:50;13.40;83.10
55121;DHT22;41019;48.512;9.036;2023-02-18T17:53:17;13.40;83.10
55121;DHT22;41019;48.512;9.036;2023-02-18T17:55:44;13.40;83.60
55121;DHT22;41019;48.512;9.036;2023-02-18T17:58:12;13.40;83.80
55121;DHT22;41019;48.512;9.036;2023-02-18T18:03:13;13.40;84.10
55121;DHT22;41019;48.512;9.036;2023-02-18T18:05:44;13.30;84.40
55121;DHT22;41019;48.512;9.036;2023-02-18T18:08:10;13.20;84.90
55121;DHT22;41019;48.512;9.036;2023-02-18T18:10:40;13.30;84.90
55121;DHT22;41019;48.512;9.036;2023-02-18T18:13:21;13.20;85.10
55121;DHT22;41019;48.512;9.036;2023-02-18T18:15:50;13.20;85.40
55121;DHT22;41019;48.512;9.036;2023-02-18T18:18:16;13.20;85.50
55121;DHT22;41019;48.512;9.036;2023-02-18T18:20:46;13.20;85.60
55121;DHT22;41019;48.512;9.036;2023-02-18T18:23:16;13.10;85.90
55121;DHT22;41019;48.512;9.036;2023-02-18T18:25:46;13.10;85.80
55121;DHT22;41019;48.512;9.036;2023-02-18T18:28:13;13.10;85.90
55121;DHT22;41019;48.512;9.036;2023-02-18T18:30:41;13.10;86.00
55121;DHT22;41019;48.512;9.036;2023-02-18T18:33:18;13.10;86.40
55121;DHT22;41019;48.512;9.036;2023-02-18T18:35:46;13.10;86.40